Sandstorm Gold (SAND) Institutional Ownership

$5.36
+0.11 (+2.09%)
(As of 04/23/2024 ET)

Institutional Ownership Changes (13F Filings) for Sandstorm Gold (NYSE:SAND)

Current
Institutional Ownership
Percentage
51.97%
Number of
Institutional Buyers
(last 12 months)
74
Total
Institutional Inflows
(last 12 months)
$115.11M
Number of
Institutional Sellers
(last 12 months)
36
Total
Institutional Outflows
(last 12 months)
$52.60M
Get SAND Insider Trade Alerts

Want to know when executives and insiders are buying or selling Sandstorm Gold stock? Sign up for InsiderTrades.com's daily newsletter to get the latest insider transactions delivered to your inbox daily.

Skip Chart & View Institutional Buying and Selling Data

SAND Institutional Buying and Selling by Quarter

Sandstorm Gold Major Shareholders & Ownership History

Reporting DateMajor Shareholder NameShares HeldMarket Value% of PortfolioQuarterly Change in SharesOwnership in CompanyDetails
4/22/2024PFG Investments LLC31,789$167K0.0%+102.5%0.011%
4/19/2024Mad River Investors189,053$993K0.7%-5.0%0.063%
4/18/2024Helikon Investments Ltd1,289,779$6.77M0.6%N/A0.433%
4/18/2024Mayfair Advisory Group LLC30,000$158K0.1%+50.0%0.010%
3/1/2024Creekmur Asset Management LLC7,835$39K0.0%N/A0.003%
2/15/2024Penn Capital Management Company LLC960,425$4.83M0.4%+13.7%0.323%
2/14/2024Sprott Inc.4,048,355$20.37M1.8%+6.4%1.360%
2/14/2024CoreCommodity Management LLC244,952$1.23M0.4%+20.0%0.082%
2/13/2024Capital International Investors14,452,440$72.70M0.0%+3.1%4.855%
2/13/2024CIBC Asset Management Inc241,052$1.22M0.0%+3.0%0.081%
2/13/2024Bard Associates Inc.536,210$2.70M1.0%-2.1%0.180%
2/13/2024Campbell & CO Investment Adviser LLC172,677$869K0.1%N/A0.058%
2/12/2024Kopernik Global Investors LLC2,420,021$12.17M1.3%+0.1%0.813%
2/9/2024Oxford Asset Management LLP10,528$53K0.1%N/A0.004%
2/9/2024Trexquant Investment LP45,046$227K0.0%-46.3%0.015%
2/9/2024Clearbridge Investments LLC259,825$1.30M0.0%N/A0.087%
2/9/2024Dynamic Technology Lab Private Ltd47,521$239K0.0%+25.1%0.016%
2/7/2024Jump Financial LLC11,700$59K0.0%N/A0.004%
2/7/2024Versor Investments LP20,000$101K0.0%-32.2%0.007%
2/7/2024Van Hulzen Asset Management LLC10,001$50K0.0%N/A0.003%
2/7/2024Principal Securities Inc.5,014$25K0.0%N/A0.002%
2/6/2024Cherry Tree Wealth Management LLC36,000$181K0.0%-7.7%0.012%
2/6/2024National Bank of Canada FI798,996$3.94M0.0%+11.4%0.268%
2/6/2024Swiss National Bank498,762$2.51M0.0%-10.9%0.168%
2/5/2024Brighton Jones LLC19,737$99K0.0%N/A0.007%
2/5/2024Van ECK Associates Corp28,838,800$145.06M0.3%+2.3%9.688%
2/5/2024C WorldWide Group Holding A S361,812$1.82M0.0%-19.7%0.122%
2/5/2024Intact Investment Management Inc.189,500$953K0.0%-34.4%0.064%
2/5/2024Russell Investments Group Ltd.458,783$2.31M0.0%-5.1%0.154%
1/31/2024HTLF Bank16,000$80K0.0%N/A0.005%
1/31/2024Zazove Associates LLC42,825$215K0.0%-88.4%0.014%
1/30/2024Bison Wealth LLC17,200$87K0.0%-46.2%0.006%
1/29/2024Koshinski Asset Management Inc.28,933$146K0.0%+37.9%0.010%
1/26/2024Mad River Investors199,034$1.00M0.9%-32.0%0.067%
1/25/2024Investment Partners Asset Management Inc.21,464$108K0.1%N/A0.007%
1/23/2024U S Global Investors Inc.933,690$4.70M0.3%+8.3%0.314%
1/16/2024Raymond James Financial Services Advisors Inc.29,301$147K0.0%+31.9%0.010%
1/16/2024Raymond James & Associates298,203$1.50M0.0%+4.1%0.101%
1/12/2024SG Americas Securities LLC92,645$466K0.0%+14.6%0.031%
1/8/2024 Optimum Investment Advisors20,400$103K0.1%-29.4%0.007%
SHOCKING Crypto Leak… (Ad)

A shocking leak has revealed tech giant Microsoft's plans to add crypto support to future products. If the plans in these leaked internal documents pan out, we could see prices skyrocket for Bitcoin, Ethereum, XRP and MORE… The coupling of gaming and cryptocurrency could absolutely transform digital finance as we know it in 2024.

Claim your free seat by clicking here now.
1/2/2024Anchor Investment Management LLC10,510$53K0.0%N/A0.004%
12/6/2023David R. Rahn & Associates Inc.25,000$116K0.1%N/A0.008%
12/6/2023Citigroup Inc.130,124$611K0.0%+284.2%0.044%
11/30/2023American Century Companies Inc.1,049,830$4.89M0.0%+1,787.2%0.354%
11/28/2023Bar Harbor Wealth Management1,177,067$5.49M0.4%+1.7%0.397%
11/22/2023Public Sector Pension Investment Board531,072$2.49M0.0%+3.7%0.179%
11/17/2023Sprott Inc.3,805,801$17.77M1.4%-1.2%1.285%
11/16/2023Integrated Advisors Network LLC20,189$94K0.0%N/A0.007%
11/16/2023Moneta Group Investment Advisors LLC38,399$179K0.0%+74.0%0.013%
11/15/2023Integrated Wealth Concepts LLC245,885$1.15M0.0%+136.9%0.083%
11/14/2023Toronto Dominion Bank29,268$136K0.0%-11.3%0.010%
11/14/2023Tiemann Investment Advisors LLC60,281$281K0.2%-18.2%0.020%
11/14/2023Trexquant Investment LP83,956$391K0.0%+134.0%0.028%
11/13/2023Connor Clark & Lunn Investment Management Ltd.57,000$266K0.0%-45.1%0.019%
11/13/2023Mariner LLC118,829$554K0.0%-38.1%0.040%
11/13/2023Hsbc Holdings PLC57,096$266K0.0%-21.7%0.019%
11/13/2023Rathbones Group PLC14,714$69K0.0%N/A0.005%
11/13/2023Bison Wealth LLC31,975$149K0.0%-55.3%0.011%
11/13/2023Intact Investment Management Inc.288,700$1.35M0.1%-1.9%0.097%
11/13/2023Invesco Ltd.4,326,883$20.16M0.0%-0.5%1.461%
11/9/2023Deutsche Bank AG205,161$956K0.0%+1,510.2%0.069%
11/9/2023Citigroup Inc.130,124$611K0.0%+284.2%0.044%
11/8/2023HighTower Advisors LLC57,741$265K0.0%+8.1%0.019%
11/8/2023Van ECK Associates Corp28,181,623$131.33M0.3%-1.1%9.515%
11/8/2023Shell Asset Management Co.20,100$94K0.0%+13.6%0.007%
11/8/2023Sequoia Financial Advisors LLC10,000$47K0.0%N/A0.003%
11/8/2023Spire Wealth Management33,117$154K0.0%N/A0.011%
11/8/2023Moors & Cabot Inc.139,850$652K0.0%+2.9%0.047%
11/7/2023Quantbot Technologies LP81,135$378K0.0%-34.1%0.027%
11/6/2023Versor Investments LP29,500$138K0.0%N/A0.010%
11/1/2023Money Concepts Capital Corp12,370$58K0.0%N/A0.004%
10/30/2023CIBC Asset Management Inc234,044$1.10M0.0%+12.7%0.079%
10/27/2023Dubuque Bank & Trust Co16,000$75K0.0%+33.3%0.005%
10/27/2023TD Asset Management Inc652,946$3.07M0.0%-1.7%0.220%
10/25/2023Zurcher Kantonalbank Zurich Cantonalbank51,647$243K0.0%+33.2%0.017%
10/24/2023Bank of New York Mellon Corp18,103$84K0.0%+20.8%0.006%
10/24/2023Raymond James Financial Services Advisors Inc.22,213$104K0.0%+20.4%0.008%
10/24/2023Raymond James & Associates286,451$1.34M0.0%+0.9%0.097%
10/18/2023U S Global Investors Inc.862,036$4.02M0.3%-18.0%0.291%
10/18/2023Koshinski Asset Management Inc.20,983$98K0.0%-9.6%0.007%
10/13/2023SG Americas Securities LLC80,839$377K0.0%+22.1%0.027%
10/12/2023Mayflower Financial Advisors LLC12,500$58K0.0%N/A0.004%
10/10/2023National Bank of Canada FI717,402$3.23M0.0%+2.3%0.242%
8/15/2023Raffles Associates LP100,000$512K0.7%N/A0.034%
8/14/2023Kopernik Global Investors LLC2,416,495$12.37M1.3%+82.2%0.816%
8/14/2023Penn Capital Management Company LLC892,179$4.57M0.4%+458.2%0.301%
8/14/2023Horizon Kinetics Asset Management LLC5,867,737$30.04M0.6%-4.4%1.981%
8/11/2023BRITISH COLUMBIA INVESTMENT MANAGEMENT Corp3,581,122$18.35M0.2%-7.7%1.209%
8/11/2023Tiemann Investment Advisors LLC73,681$377K0.2%-4.6%0.025%
8/11/2023Cibc World Market Inc.50,836$261K0.0%-40.0%0.017%
SHOCKING Crypto Leak… (Ad)

A shocking leak has revealed tech giant Microsoft's plans to add crypto support to future products. If the plans in these leaked internal documents pan out, we could see prices skyrocket for Bitcoin, Ethereum, XRP and MORE… The coupling of gaming and cryptocurrency could absolutely transform digital finance as we know it in 2024.

Claim your free seat by clicking here now.
8/11/2023Capital International Investors14,017,980$71.77M0.0%+110.1%4.733%
8/11/2023Guggenheim Capital LLC328,699$1.68M0.0%+4.4%0.111%
8/10/2023Great West Life Assurance Co. Can263,638$1.35M0.0%-92.6%0.089%
8/10/2023Private Advisor Group LLC326,672$1.67M0.0%-5.3%0.110%
8/10/2023Moors & Cabot Inc.135,850$696K0.0%+4.6%0.046%
8/9/2023Cannell & Co.162,000$829K0.0%N/A0.055%
8/9/2023TD Asset Management Inc664,543$3.41M0.0%+6.1%0.224%
8/9/2023Swiss National Bank559,862$2.87M0.0%+14.9%0.189%
8/3/2023Bank of Nova Scotia17,076$88K0.0%N/A0.006%
8/3/2023 Optimum Investment Advisors27,800$142K0.1%+16.8%0.009%
(Data available from 1/1/2016 forward)

SAND Institutional Ownership - Frequently Asked Questions

Who are the largest shareholders of SAND shares?

During the previous two years, 152 institutional investors and hedge funds held shares of Sandstorm Gold. The most heavily invested institutionals were Orion Resource Partners USA LP ($252.33M), Van ECK Associates Corp ($145.06M), Capital International Investors ($72.70M), Phoenix Holdings Ltd. ($40.59M), Ontario Teachers Pension Plan Board ($34.89M), Horizon Kinetics Asset Management LLC ($30.04M), and Sprott Inc. ($20.37M).Learn more on SAND's institutional investors.

What percentage of Sandstorm Gold stock is owned by institutional investors?

51.97% of Sandstorm Gold stock is owned by institutional investors. Learn more on SAND's institutional investor holdings.

Which institutional investors have been buying Sandstorm Gold stock?

Of the 131 institutional investors that purchased Sandstorm Gold stock in the last 24 months, the following investors and hedge funds have bought the highest volume of shares: Orion Resource Partners USA LP ($47.97M), Van ECK Associates Corp ($12.99M), Capital International Investors ($7.78M), Ontario Teachers Pension Plan Board ($6.75M), Great West Life Assurance Co. Can ($6.24M), Phoenix Holdings Ltd. ($3.88M), and BRITISH COLUMBIA INVESTMENT MANAGEMENT Corp ($3.68M).

How much institutional buying is happening at Sandstorm Gold?

Institutional investors have bought a total of 116,681,730 shares in the last 24 months. This purchase volume represents approximately $633.34M in transactions.

Which Sandstorm Gold major shareholders have been selling company stock?

Of the 71 institutional investors that sold Sandstorm Gold stock in the last 24 months, the following investors and hedge funds have sold the highest volume of shares: Scotia Capital Inc. ($4.92M), Great West Life Assurance Co. Can ($3.31M), Van ECK Associates Corp ($3.20M), Connor Clark & Lunn Investment Management Ltd. ($2.66M), PCJ Investment Counsel Ltd. ($592.47K), Horizon Kinetics Asset Management LLC ($479.39K), and U S Global Investors Inc. ($417.58K).

How much institutional selling is happening at Sandstorm Gold?

Institutional investors have sold a total of 19,650,360 shares in the last 24 months. This volume of shares sold represents approximately $104.94M in transactions.


This page (NYSE:SAND) was last updated on 4/24/2024 by MarketBeat.com Staff

From Our Partners